Time;durP1;ratioP1;P1;durP2;ratioP2;P2;SDS_P1;SDS_P2;PMS_P1;PMS_P2;Temp;Humidity;BMP_temperature;BMP_pressure;BME280_temperature;BME280_humidity;BME280_pressure;Samples;Min_cycle;Max_cycle;Signal;HPM_P1;HPM_P2
2022/10/27 00:01:20;;;;;;;;;;;;;;;-144.99;100.00;52374.72;5068530;28;20738;-63
2022/10/27 00:03:49;;;;;;;;;;;;;;;-144.99;100.00;52366.56;5061993;28;20041;-63
2022/10/27 00:06:16;;;;;;;;;;;;;;;-144.99;100.00;52350.25;5067581;28;20431;-65
2022/10/27 00:08:42;;;;;;;;;;;;;;;-144.99;100.00;52362.50;5066657;28;19970;-66
2022/10/27 00:11:09;;;;;;;;;;;;;;;-144.99;100.00;52358.41;5068110;28;19962;-66
2022/10/27 00:13:35;;;;;;;;;;;;;;;-144.99;100.00;52362.50;5067410;28;20298;-66
2022/10/27 00:16:04;;;;;;;;;;;;;;;-144.99;100.00;52354.34;5067834;28;20386;-66
2022/10/27 00:18:31;;;;;;;;;;;;;;;-144.99;100.00;52366.56;5067670;28;19954;-64
2022/10/27 00:20:58;;;;;;;;;;;;;;;-144.99;100.00;52366.56;5068108;28;19977;-63
2022/10/27 00:23:25;;;;;;;;;;;;;;;-144.99;100.00;52344.16;5075212;28;19946;-64
2022/10/27 00:25:52;;;;;;;;;;;;;;;-144.99;100.00;52376.75;5085997;28;19965;-65
2022/10/27 00:28:18;;;;;;;;;;;;;;;-144.99;100.00;52362.50;5067545;28;19971;-63
2022/10/27 00:30:45;;;;;;;;;;;;;;;-144.99;100.00;52370.63;5067751;28;20047;-63
2022/10/27 00:33:12;;;;;;;;;;;;;;;-144.99;100.00;52384.91;5067127;28;19952;-62
2022/10/27 00:35:39;;;;;;;;;;;;;;;-144.99;100.00;52366.56;5067837;28;19942;-64
2022/10/27 00:38:05;;;;;;;;;;;;;;;-144.99;100.00;52395.09;5072875;28;19945;-65
2022/10/27 00:40:36;;;;;;;;;;;;;;;-144.99;100.00;52366.56;5067778;28;19975;-65
2022/10/27 00:43:02;;;;;;;;;;;;;;;-144.99;100.00;52384.91;5067018;28;19932;-64
2022/10/27 00:45:28;;;;;;;;;;;;;;;-144.99;100.00;52362.50;5071037;28;20338;-65
2022/10/27 00:47:55;;;;;;;;;;;;;;;-144.99;100.00;52301.34;5078544;28;19966;-65
2022/10/27 00:50:25;;;;;;;;;;;;;;;-144.99;100.00;52346.19;5087654;28;19962;-65
2022/10/27 00:52:52;;;;;;;;;;;;;;;-144.99;100.00;52358.41;5080119;28;20403;-65
2022/10/27 00:55:20;;;;;;;;;;;;;;;-144.99;100.00;52342.09;5087077;28;19950;-65
2022/10/27 00:57:48;;;;;;;;;;;;;;;-144.99;100.00;52382.88;5087545;28;19963;-65
2022/10/27 01:00:15;;;;;;;;;;;;;;;-144.99;100.00;52370.63;5079537;28;19966;-65
2022/10/27 01:02:42;;;;;;;;;;;;;;;-144.99;100.00;52344.16;5063369;28;19940;-65
2022/10/27 01:05:12;;;;;;;;;;;;;;;-144.99;100.00;52358.41;5058751;28;20315;-66
2022/10/27 01:07:41;;;;;;;;;;;;;;;-144.99;100.00;52317.66;5065326;28;19962;-67
2022/10/27 01:10:07;;;;;;;;;;;;;;;-144.99;100.00;52374.72;5070060;28;20448;-66
2022/10/27 01:12:34;;;;;;;;;;;;;;;-144.99;100.00;52344.16;5071126;28;19945;-66
2022/10/27 01:15:01;;;;;;;;;;;;;;;-144.99;100.00;52382.88;5071539;28;19955;-66
2022/10/27 01:17:35;;;;;;;;;;;;;;;-144.99;100.00;52354.34;5070780;28;19946;-66
2022/10/27 01:20:13;;;;;;;;;;;;;;;-144.99;100.00;52354.34;5070944;28;19968;-66
2022/10/27 01:22:44;;;;;;;;;;;;;;;-144.99;100.00;52374.72;5069184;28;20146;-66
2022/10/27 01:25:37;;;;;;;;;;;;;;;-144.99;100.00;52354.34;5071162;28;19963;-64
2022/10/27 01:28:18;;;;;;;;;;;;;;;-144.99;100.00;52366.56;5023175;28;20057;-64
2022/10/27 01:30:53;;;;;;;;;;;;;;;-144.99;100.00;52364.53;5087508;28;20330;-63
2022/10/27 01:33:22;;;;;;;;;;;;;;;-144.99;100.00;52374.72;5079633;28;19942;-64
2022/10/27 01:35:53;;;;;;;;;;;;;;;-144.99;100.00;52362.50;5063794;28;19950;-63
2022/10/27 01:38:23;;;;;;;;;;;;;;;-144.99;100.00;52346.19;5071206;28;19943;-62
2022/10/27 01:40:54;;;;;;;;;;;;;;;-144.99;100.00;52372.69;5070478;28;19972;-63
2022/10/27 01:43:22;;;;;;;;;;;;;;;-144.99;100.00;52358.41;5071151;28;20267;-62
2022/10/27 01:45:49;;;;;;;;;;;;;;;-144.99;100.00;52362.50;5071944;28;20453;-63
2022/10/27 01:48:18;;;;;;;;;;;;;;;-144.99;100.00;52366.56;5070369;28;19970;-63
2022/10/27 01:50:44;;;;;;;;;;;;;;;-144.99;100.00;52350.25;5070448;28;20281;-64
2022/10/27 01:53:11;;;;;;;;;;;;;;;-144.99;100.00;52350.25;5067960;28;19953;-65
2022/10/27 01:55:45;;;;;;;;;;;;;;;-144.99;100.00;52378.78;5070311;28;20286;-63
2022/10/27 01:58:24;;;;;;;;;;;;;;;-144.99;100.00;52346.19;5070018;28;20304;-63
2022/10/27 02:00:55;;;;;;;;;;;;;;;-144.99;100.00;52338.03;5069420;28;20045;-62
2022/10/27 02:03:27;;;;;;;;;;;;;;;-144.99;100.00;52366.56;5075100;28;20498;-63
2022/10/27 02:05:59;;;;;;;;;;;;;;;-144.99;100.00;52358.41;5081213;28;19986;-63
2022/10/27 02:08:28;;;;;;;;;;;;;;;-144.99;100.00;52362.50;5068796;28;19944;-63
2022/10/27 02:10:57;;;;;;;;;;;;;;;-144.99;100.00;52344.16;5070324;28;19982;-63
2022/10/27 02:13:24;;;;;;;;;;;;;;;-144.99;100.00;52346.19;5066402;28;19955;-63
2022/10/27 02:15:52;;;;;;;;;;;;;;;-144.99;100.00;52336.00;5064437;28;19940;-63
2022/10/27 02:18:22;;;;;;;;;;;;;;;-144.99;100.00;52393.06;5056179;28;19946;-62
2022/10/27 02:20:51;;;;;;;;;;;;;;;-144.99;100.00;52329.88;5068516;28;19959;-64
2022/10/27 02:23:18;;;;;;;;;;;;;;;-144.99;100.00;52382.88;5075564;28;19943;-63
2022/10/27 02:25:49;;;;;;;;;;;;;;;-144.99;100.00;52382.88;5089968;28;19968;-63
2022/10/27 02:28:18;;;;;;;;;;;;;;;-144.99;100.00;52403.25;5083528;28;19953;-64
2022/10/27 02:30:45;;;;;;;;;;;;;;;-144.99;100.00;52358.41;5069973;28;19968;-65
2022/10/27 02:33:12;;;;;;;;;;;;;;;-144.99;100.00;52342.09;5069894;28;19949;-65
2022/10/27 02:35:39;;;;;;;;;;;;;;;-144.99;100.00;52358.41;5070111;28;20030;-65
2022/10/27 02:38:07;;;;;;;;;;;;;;;-144.99;100.00;52378.78;5070505;28;19946;-65
2022/10/27 02:40:33;;;;;;;;;;;;;;;-144.99;100.00;52391.03;5073615;28;20012;-64
2022/10/27 02:43:00;;;;;;;;;;;;;;;-144.99;100.00;52346.19;5070535;28;19947;-66
2022/10/27 02:45:26;;;;;;;;;;;;;;;-144.99;100.00;52358.41;5080441;28;20005;-65
2022/10/27 02:47:53;;;;;;;;;;;;;;;-144.99;100.00;52378.78;5079477;28;20002;-65
2022/10/27 02:50:19;;;;;;;;;;;;;;;-144.99;100.00;52362.50;5069502;28;19958;-64
2022/10/27 02:52:45;;;;;;;;;;;;;;;-144.99;100.00;52362.50;5067624;28;19941;-66
2022/10/27 02:55:13;;;;;;;;;;;;;;;-144.99;100.00;52382.88;5069506;28;20406;-66
2022/10/27 02:57:40;;;;;;;;;;;;;;;-144.99;100.00;52358.41;5069353;28;19947;-66
2022/10/27 03:00:07;;;;;;;;;;;;;;;-144.99;100.00;52386.94;5068406;28;19953;-66
2022/10/27 03:02:33;;;;;;;;;;;;;;;-144.99;100.00;52358.41;5061141;28;19941;-66
2022/10/27 03:05:02;;;;;;;;;;;;;;;-144.99;100.00;52338.03;5062857;28;19941;-67
2022/10/27 03:07:28;;;;;;;;;;;;;;;-144.99;100.00;52378.78;5063038;28;19945;-67
2022/10/27 03:09:54;;;;;;;;;;;;;;;-144.99;100.00;52382.88;5063213;28;19985;-68
2022/10/27 03:12:22;;;;;;;;;;;;;;;-144.99;100.00;52342.09;5071624;28;20035;-67
2022/10/27 03:14:49;;;;;;;;;;;;;;;-144.99;100.00;52342.09;5085511;28;19946;-68
2022/10/27 03:17:15;;;;;;;;;;;;;;;-144.99;100.00;52362.50;5080342;28;19948;-65
2022/10/27 03:19:42;;;;;;;;;;;;;;;-144.99;100.00;52354.34;5070990;28;20422;-67
2022/10/27 03:22:08;;;;;;;;;;;;;;;-144.99;100.00;52350.25;5060312;28;19951;-69
2022/10/27 03:24:34;;;;;;;;;;;;;;;-144.99;100.00;52366.56;5086436;28;19947;-61
2022/10/27 03:27:01;;;;;;;;;;;;;;;-144.99;100.00;52374.72;5075169;28;19928;-70
2022/10/27 03:29:28;;;;;;;;;;;;;;;-144.99;100.00;52386.94;5069386;28;19945;-69
2022/10/27 03:31:55;;;;;;;;;;;;;;;-144.99;100.00;52382.88;5068883;28;19953;-70
2022/10/27 03:34:21;;;;;;;;;;;;;;;-144.99;100.00;52376.75;5085299;28;20515;-70
2022/10/27 03:36:48;;;;;;;;;;;;;;;-144.99;100.00;52391.03;5081264;22;19997;-79
2022/10/27 03:39:14;;;;;;;;;;;;;;;-144.99;100.00;52346.19;5088683;28;19988;-79
2022/10/27 03:41:41;;;;;;;;;;;;;;;-144.99;100.00;52382.88;5073903;28;20001;-79
2022/10/27 03:44:07;;;;;;;;;;;;;;;-144.99;100.00;52362.50;5071798;28;19951;-76
2022/10/27 03:46:35;;;;;;;;;;;;;;;-144.99;100.00;52370.63;5064929;28;20477;-76
2022/10/27 03:49:01;;;;;;;;;;;;;;;-144.99;100.00;52415.47;5048748;28;19954;-76
2022/10/27 03:51:28;;;;;;;;;;;;;;;-144.99;100.00;52395.09;5052887;28;20477;-70
2022/10/27 03:53:56;;;;;;;;;;;;;;;-144.99;100.00;52366.56;5048357;28;19947;-73
2022/10/27 03:56:22;;;;;;;;;;;;;;;-144.99;100.00;52368.59;5049176;28;19943;-73
2022/10/27 03:58:49;;;;;;;;;;;;;;;-144.99;100.00;52382.88;5052159;28;19945;-72
2022/10/27 04:01:15;;;;;;;;;;;;;;;-144.99;100.00;52346.19;5051022;28;20461;-72
2022/10/27 04:03:43;;;;;;;;;;;;;;;-144.99;100.00;52384.91;5048076;28;20037;-71
2022/10/27 04:06:09;;;;;;;;;;;;;;;-144.99;100.00;52360.44;5057082;28;19963;-71
2022/10/27 04:08:36;;;;;;;;;;;;;;;-144.99;100.00;52366.56;5047992;28;20410;-77
2022/10/27 04:11:02;;;;;;;;;;;;;;;-144.99;100.00;52358.41;5049493;28;20514;-76
2022/10/27 04:13:29;;;;;;;;;;;;;;;-144.99;100.00;52366.56;5049497;28;20061;-76
2022/10/27 04:15:56;;;;;;;;;;;;;;;-144.99;100.00;52378.78;5040097;28;20055;-76
2022/10/27 04:18:22;;;;;;;;;;;;;;;-144.99;100.00;52372.69;5057803;28;20062;-75
2022/10/27 04:20:50;;;;;;;;;;;;;;;-144.99;100.00;52395.09;5050340;28;20040;-76
2022/10/27 04:23:17;;;;;;;;;;;;;;;-144.99;100.00;52358.41;5048028;28;20648;-76
2022/10/27 04:25:43;;;;;;;;;;;;;;;-144.99;100.00;52370.63;5049344;28;19949;-76
2022/10/27 04:28:10;;;;;;;;;;;;;;;-144.99;100.00;52338.03;5049587;28;19931;-76
2022/10/27 04:30:36;;;;;;;;;;;;;;;-144.99;100.00;52374.72;5049779;28;20011;-76
2022/10/27 04:33:03;;;;;;;;;;;;;;;-144.99;100.00;52358.41;5048812;28;19954;-76
2022/10/27 04:35:29;;;;;;;;;;;;;;;-144.99;100.00;52382.88;5049496;28;20287;-75
2022/10/27 04:37:58;;;;;;;;;;;;;;;-144.99;100.00;52354.34;5047115;28;19947;-76
2022/10/27 04:40:24;;;;;;;;;;;;;;;-144.99;100.00;52378.78;5045813;28;20042;-75
2022/10/27 04:42:50;;;;;;;;;;;;;;;-144.99;100.00;52374.72;5029029;28;19990;-75
2022/10/27 04:45:17;;;;;;;;;;;;;;;-144.99;100.00;52325.81;5042643;28;20608;-75
2022/10/27 04:47:44;;;;;;;;;;;;;;;-144.99;100.00;52419.56;5052738;28;20073;-75
2022/10/27 04:50:11;;;;;;;;;;;;;;;-144.99;100.00;52386.94;5049708;28;19931;-75
2022/10/27 04:52:37;;;;;;;;;;;;;;;-144.99;100.00;52372.69;5053588;28;19982;-74
2022/10/27 04:55:05;;;;;;;;;;;;;;;-144.99;100.00;52399.19;5072094;28;19927;-77
2022/10/27 04:57:31;;;;;;;;;;;;;;;-144.99;100.00;52386.94;5078009;28;19941;-76
2022/10/27 04:59:58;;;;;;;;;;;;;;;-144.99;100.00;52427.72;5071858;28;20001;-75
2022/10/27 05:02:24;;;;;;;;;;;;;;;-144.99;100.00;52388.97;5068411;28;19979;-75
2022/10/27 05:04:51;;;;;;;;;;;;;;;-144.99;100.00;52358.41;5083565;28;19947;-76
2022/10/27 05:07:17;;;;;;;;;;;;;;;-144.99;100.00;52386.94;5069240;28;20102;-75
2022/10/27 05:09:43;;;;;;;;;;;;;;;-144.99;100.00;52346.19;5067093;28;20243;-74
2022/10/27 05:12:11;;;;;;;;;;;;;;;-144.99;100.00;52376.75;5062755;28;20008;-74
2022/10/27 05:14:37;;;;;;;;;;;;;;;-144.99;100.00;52391.03;5064953;28;20082;-74
2022/10/27 05:17:04;;;;;;;;;;;;;;;-144.99;100.00;52368.59;5060849;28;19974;-74
2022/10/27 05:19:30;;;;;;;;;;;;;;;-144.99;100.00;52358.41;5061448;28;19951;-74
2022/10/27 05:21:57;;;;;;;;;;;;;;;-144.99;100.00;52395.09;5057072;28;19949;-74
2022/10/27 05:24:23;;;;;;;;;;;;;;;-144.99;100.00;52397.13;5051875;28;20035;-74
2022/10/27 05:26:50;;;;;;;;;;;;;;;-144.99;100.00;52370.63;5053678;28;20071;-74
2022/10/27 05:29:17;;;;;;;;;;;;;;;-144.99;100.00;52378.78;5054131;28;19945;-74
2022/10/27 05:31:44;;;;;;;;;;;;;;;-144.99;100.00;52358.41;5052925;28;19965;-74
2022/10/27 05:34:10;;;;;;;;;;;;;;;-144.99;100.00;52386.94;5053623;28;19955;-74
2022/10/27 05:36:36;;;;;;;;;;;;;;;-144.99;100.00;52382.88;5051699;28;19936;-74
2022/10/27 05:39:03;;;;;;;;;;;;;;;-144.99;100.00;52329.88;5058130;28;19944;-75
2022/10/27 05:41:29;;;;;;;;;;;;;;;-144.99;100.00;52411.41;5057253;28;20144;-74
2022/10/27 05:43:56;;;;;;;;;;;;;;;-144.99;100.00;52378.78;5057595;28;19959;-74
2022/10/27 05:46:24;;;;;;;;;;;;;;;-144.99;100.00;52378.78;5062272;28;20438;-74
2022/10/27 05:48:50;;;;;;;;;;;;;;;-144.99;100.00;52423.63;5057481;28;19990;-74
2022/10/27 05:51:16;;;;;;;;;;;;;;;-144.99;100.00;52362.50;5059423;28;20049;-74
2022/10/27 05:53:43;;;;;;;;;;;;;;;-144.99;100.00;52401.22;5049951;28;19952;-75
2022/10/27 05:56:09;;;;;;;;;;;;;;;-144.99;100.00;52374.72;5059884;28;19948;-75
2022/10/27 05:58:36;;;;;;;;;;;;;;;-144.99;100.00;52358.41;5057427;28;20398;-74
2022/10/27 06:01:02;;;;;;;;;;;;;;;-144.99;100.00;52319.69;5052022;28;20390;-74
2022/10/27 06:03:30;;;;;;;;;;;;;;;-144.99;100.00;52370.63;5051231;28;20037;-75
2022/10/27 06:05:56;;;;;;;;;;;;;;;-144.99;100.00;52382.88;5052323;28;19944;-74
2022/10/27 06:08:24;;;;;;;;;;;;;;;-144.99;100.00;52368.59;5050140;28;19969;-74
2022/10/27 06:10:50;;;;;;;;;;;;;;;-144.99;100.00;52374.72;5051990;28;20026;-78
2022/10/27 06:13:17;;;;;;;;;;;;;;;-144.99;100.00;52386.94;5053236;28;20039;-76
2022/10/27 06:15:50;;;;;;;;;;;;;;;-144.99;100.00;52342.09;5060939;28;19949;-75
2022/10/27 06:18:16;;;;;;;;;;;;;;;-144.99;100.00;52395.09;5051318;28;20357;-74
2022/10/27 06:20:44;;;;;;;;;;;;;;;-144.99;100.00;52391.03;5051851;28;20028;-74
2022/10/27 06:23:10;;;;;;;;;;;;;;;-144.99;100.00;52391.03;5049384;28;19939;-73
2022/10/27 06:25:37;;;;;;;;;;;;;;;-144.99;100.00;52358.41;5051063;28;20027;-74
2022/10/27 06:28:03;;;;;;;;;;;;;;;-144.99;100.00;52407.31;5051488;28;20071;-74
2022/10/27 06:30:30;;;;;;;;;;;;;;;-144.99;100.00;52417.53;5051480;28;20441;-74
2022/10/27 06:32:56;;;;;;;;;;;;;;;-144.99;100.00;52384.91;5050893;28;19946;-75
2022/10/27 06:35:23;;;;;;;;;;;;;;;-144.99;100.00;52399.19;5057444;28;19966;-75
2022/10/27 06:37:51;;;;;;;;;;;;;;;-144.99;100.00;52399.19;5058189;28;19951;-74
2022/10/27 06:40:18;;;;;;;;;;;;;;;-144.99;100.00;52407.31;5051691;28;19961;-74
2022/10/27 06:42:45;;;;;;;;;;;;;;;-144.99;100.00;52358.41;5051409;28;19950;-74
2022/10/27 06:45:12;;;;;;;;;;;;;;;-144.99;100.00;52378.78;5052289;28;19943;-76
2022/10/27 06:47:39;;;;;;;;;;;;;;;-144.99;100.00;52360.44;5062649;28;19981;-74
2022/10/27 06:50:06;;;;;;;;;;;;;;;-144.99;100.00;52382.88;5052041;28;20001;-75
2022/10/27 06:52:35;;;;;;;;;;;;;;;-144.99;100.00;52376.75;5057028;28;19941;-73
2022/10/27 06:55:03;;;;;;;;;;;;;;;-144.99;100.00;52382.88;5059156;28;19946;-74
2022/10/27 06:57:29;;;;;;;;;;;;;;;-144.99;100.00;52407.31;5058556;28;19950;-75
2022/10/27 06:59:56;;;;;;;;;;;;;;;-144.99;100.00;52333.94;5051404;28;19966;-74
2022/10/27 07:02:24;;;;;;;;;;;;;;;-144.99;100.00;52366.56;5050402;28;19940;-74
2022/10/27 07:04:51;;;;;;;;;;;;;;;-144.99;100.00;52370.63;5055418;28;19983;-74
2022/10/27 07:07:18;;;;;;;;;;;;;;;-144.99;100.00;52350.25;5049319;28;20018;-73
2022/10/27 07:09:44;;;;;;;;;;;;;;;-144.99;100.00;52362.50;5051179;28;19950;-75
2022/10/27 07:12:12;;;;;;;;;;;;;;;-144.99;100.00;52370.63;5051049;28;20265;-74
2022/10/27 07:14:38;;;;;;;;;;;;;;;-144.99;100.00;52358.41;5051086;28;19971;-75
2022/10/27 07:17:05;;;;;;;;;;;;;;;-144.99;100.00;52391.03;5050198;28;19946;-75
2022/10/27 07:19:31;;;;;;;;;;;;;;;-144.99;100.00;52376.75;5049919;28;19953;-75
2022/10/27 07:21:57;;;;;;;;;;;;;;;-144.99;100.00;52350.25;5049322;28;20048;-75
2022/10/27 07:24:24;;;;;;;;;;;;;;;-144.99;100.00;52374.72;5051167;28;19947;-75
2022/10/27 07:26:50;;;;;;;;;;;;;;;-144.99;100.00;52338.03;5051080;28;19966;-75
2022/10/27 07:29:18;;;;;;;;;;;;;;;-144.99;100.00;52370.63;5051613;28;20002;-75
2022/10/27 07:31:45;;;;;;;;;;;;;;;-144.99;100.00;52372.69;5050046;28;19970;-75
2022/10/27 07:34:11;;;;;;;;;;;;;;;-144.99;100.00;52378.78;5049395;28;19952;-75
2022/10/27 07:36:38;;;;;;;;;;;;;;;-144.99;100.00;52346.19;5059895;28;19942;-75
2022/10/27 07:39:05;;;;;;;;;;;;;;;-144.99;100.00;52366.56;5058422;28;20110;-75
2022/10/27 07:41:31;;;;;;;;;;;;;;;-144.99;100.00;52366.56;5049915;28;19961;-74
2022/10/27 07:43:58;;;;;;;;;;;;;;;-144.99;100.00;52350.25;5049987;28;19958;-74
2022/10/27 07:46:26;;;;;;;;;;;;;;;-144.99;100.00;52321.72;5056638;28;19947;-75
2022/10/27 07:48:52;;;;;;;;;;;;;;;-144.99;100.00;52366.56;5053412;28;19970;-75
2022/10/27 07:51:19;;;;;;;;;;;;;;;-144.99;100.00;52323.75;5053551;28;19962;-75
2022/10/27 07:53:45;;;;;;;;;;;;;;;-144.99;100.00;52354.34;5049879;28;19955;-76
2022/10/27 07:56:12;;;;;;;;;;;;;;;-144.99;100.00;52325.81;5060000;28;19949;-75
2022/10/27 07:58:38;;;;;;;;;;;;;;;-144.99;100.00;52382.88;5056322;28;19947;-75
2022/10/27 08:01:05;;;;;;;;;;;;;;;-144.99;100.00;52374.72;5049870;28;20046;-74
2022/10/27 08:03:33;;;;;;;;;;;;;;;-144.99;100.00;52358.41;5049584;28;20012;-75
2022/10/27 08:06:01;;;;;;;;;;;;;;;-144.99;100.00;52338.03;5050896;28;19948;-74
2022/10/27 08:08:28;;;;;;;;;;;;;;;-144.99;100.00;52333.94;5054720;28;20008;-75
2022/10/27 08:10:55;;;;;;;;;;;;;;;-144.99;100.00;52333.94;5064071;28;19965;-75
2022/10/27 08:13:21;;;;;;;;;;;;;;;-144.99;100.00;52346.19;5070596;28;19981;-75
2022/10/27 08:15:48;;;;;;;;;;;;;;;-144.99;100.00;52342.09;5070818;28;19937;-74
2022/10/27 08:18:14;;;;;;;;;;;;;;;-144.99;100.00;52325.81;5066686;28;20481;-73
2022/10/27 08:20:43;;;;;;;;;;;;;;;-144.99;100.00;52362.50;5054264;28;20422;-74
2022/10/27 08:23:10;;;;;;;;;;;;;;;-144.99;100.00;52346.19;5055227;28;19953;-75
2022/10/27 08:25:37;;;;;;;;;;;;;;;-144.99;100.00;52354.34;5050598;28;19944;-73
2022/10/27 08:28:04;;;;;;;;;;;;;;;-144.99;100.00;52366.56;5056348;28;19961;-73
2022/10/27 08:30:31;;;;;;;;;;;;;;;-144.99;100.00;52329.88;5051946;28;19967;-75
2022/10/27 08:32:58;;;;;;;;;;;;;;;-144.99;100.00;52321.72;5049741;28;19971;-73
2022/10/27 08:35:25;;;;;;;;;;;;;;;-144.99;100.00;52321.72;5049867;28;20456;-73
2022/10/27 08:37:58;;;;;;;;;;;;;;;-144.99;100.00;52321.72;5049473;28;20372;-73
2022/10/27 08:40:25;;;;;;;;;;;;;;;-144.99;100.00;52321.72;5049518;28;19990;-73
2022/10/27 08:43:01;;;;;;;;;;;;;;;-144.99;100.00;52346.19;5049770;28;19982;-74
2022/10/27 08:45:28;;;;;;;;;;;;;;;-144.99;100.00;52305.41;5049552;28;19945;-73
2022/10/27 08:47:56;;;;;;;;;;;;;;;-144.99;100.00;52311.53;5061129;28;19955;-73
2022/10/27 08:50:24;;;;;;;;;;;;;;;-144.99;100.00;52293.19;5050875;28;19971;-73
2022/10/27 08:52:54;;;;;;;;;;;;;;;-144.99;100.00;52268.72;5065136;28;19940;-73
2022/10/27 08:55:25;;;;;;;;;;;;;;;-144.99;99.58;52280.97;5062753;28;19963;-73
2022/10/27 08:57:55;;;;;;;;;;;;;;;-144.99;96.49;52268.72;5057558;28;19947;-73
2022/10/27 09:00:22;;;;;;;;;;;;;;;-144.99;92.73;52297.25;5049437;28;19965;-73
2022/10/27 09:03:06;;;;;;;;;;;;;;;-144.99;90.83;52260.56;5049566;28;19936;-73
2022/10/27 09:05:36;;;;;;;;;;;;;;;-144.99;89.93;52268.72;5053942;28;20255;-73
2022/10/27 09:08:06;;;;;;;;;;;;;;;-144.99;87.14;52223.88;5046922;28;19969;-73
2022/10/27 09:10:40;;;;;;;;;;;;;;;-144.99;85.07;52244.28;5048638;28;19971;-73
2022/10/27 09:13:12;;;;;;;;;;;;;;;-144.99;85.81;52232.03;5048729;28;19946;-73
2022/10/27 09:15:42;;;;;;;;;;;;;;;-144.99;85.90;52223.88;5047433;28;20041;-74
2022/10/27 09:18:12;;;;;;;;;;;;;;;-144.99;83.43;52248.34;5048278;28;20441;-74
2022/10/27 09:20:42;;;;;;;;;;;;;;;-144.99;81.91;52252.44;5048514;28;19963;-73
2022/10/27 09:23:11;;;;;;;;;;;;;;;-144.99;81.01;52256.50;5046079;28;20362;-72
2022/10/27 09:25:40;;;;;;;;;;;;;;;-144.99;77.78;52250.38;5047650;28;19971;-72
2022/10/27 09:28:08;;;;;;;;;;;;;;;-144.99;75.68;52203.50;5047908;28;20054;-73
2022/10/27 09:30:36;;;;;;;;;;;;;;;-144.99;72.86;52195.34;5050403;28;20380;-73
2022/10/27 09:33:11;;;;;;;;;;;;;;;-144.99;71.47;52219.81;5052050;28;19948;-73
2022/10/27 09:35:37;;;;;;;;;;;;;;;-144.99;71.74;52223.88;5045350;28;19936;-72
2022/10/27 09:38:08;;;;;;;;;;;;;;;-144.99;71.80;52252.44;5071756;22;19957;-73
2022/10/27 09:40:36;;;;;;;;;;;;;;;-144.99;71.74;52230.00;5042978;28;19957;-73
2022/10/27 09:43:04;;;;;;;;;;;;;;;-144.99;70.89;52236.13;5043381;28;19964;-73
2022/10/27 09:45:31;;;;;;;;;;;;;;;-144.99;71.72;52268.72;5045714;28;19956;-72
2022/10/27 09:47:59;;;;;;;;;;;;;;;-144.99;72.92;52276.88;5051400;28;19959;-73
2022/10/27 09:50:35;;;;;;;;;;;;;;;-144.99;72.58;52264.66;5050860;28;19966;-74
2022/10/27 09:53:01;;;;;;;;;;;;;;;-144.99;73.22;52252.44;5049253;28;20418;-73
2022/10/27 09:55:46;;;;;;;;;;;;;;;-144.99;72.49;52230.00;5048388;28;19937;-73
2022/10/27 09:58:14;;;;;;;;;;;;;;;-144.99;72.65;52264.66;5051365;28;19951;-72
2022/10/27 10:00:42;;;;;;;;;;;;;;;-144.99;73.17;52213.69;5056050;28;19963;-74
2022/10/27 10:03:18;;;;;;;;;;;;;;;-144.99;73.20;52227.97;5055711;28;20071;-74
2022/10/27 10:05:46;;;;;;;;;;;;;;;-144.99;75.05;52256.50;5051212;28;19982;-73
2022/10/27 10:08:14;;;;;;;;;;;;;;;-144.99;73.91;52252.44;5048773;28;20398;-72
2022/10/27 10:10:53;;;;;;;;;;;;;;;-144.99;73.57;52256.50;5051216;28;20060;-72
2022/10/27 10:13:21;;;;;;;;;;;;;;;-144.99;74.37;52256.50;5050082;28;19945;-72
2022/10/27 10:15:48;;;;;;;;;;;;;;;-144.99;76.97;52260.56;5049647;28;19942;-72
2022/10/27 10:18:23;;;;;;;;;;;;;;;-144.99;74.88;52215.75;5050509;28;19959;-72
2022/10/27 10:20:56;;;;;;;;;;;;;;;-144.99;72.54;52238.16;5050948;28;20059;-73
2022/10/27 10:23:23;;;;;;;;;;;;;;;-144.99;70.17;52223.88;5058072;28;20036;-72
2022/10/27 10:25:50;;;;;;;;;;;;;;;-144.99;69.93;52244.28;5070515;28;19964;-72
2022/10/27 10:28:20;;;;;;;;;;;;;;;-144.99;69.02;52187.19;5065092;28;19929;-72
2022/10/27 10:30:51;;;;;;;;;;;;;;;-144.99;66.77;52162.75;5050263;28;19971;-72
2022/10/27 10:33:18;;;;;;;;;;;;;;;-144.99;64.07;52160.72;5036332;28;19943;-72
2022/10/27 10:35:45;;;;;;;;;;;;;;;-144.99;62.04;52109.75;5049805;28;20202;-72
2022/10/27 10:38:28;;;;;;;;;;;;;;;-144.99;59.89;52170.91;5051201;28;20354;-72
2022/10/27 10:41:12;;;;;;;;;;;;;;;-144.99;60.56;52164.78;5053289;28;19960;-71
2022/10/27 10:43:39;;;;;;;;;;;;;;;-144.99;59.58;52174.97;5049345;28;20294;-71
2022/10/27 10:46:16;;;;;;;;;;;;;;;-144.99;59.94;52195.34;5049558;28;20006;-72
2022/10/27 10:48:46;;;;;;;;;;;;;;;-144.99;61.23;52121.97;5049052;28;20128;-71
2022/10/27 10:51:13;;;;;;;;;;;;;;;-144.99;61.60;52121.97;5050040;28;19967;-72
2022/10/27 10:53:41;;;;;;;;;;;;;;;-144.99;60.96;52166.81;5047308;28;19968;-72
2022/10/27 10:56:21;;;;;;;;;;;;;;;-144.99;58.87;52154.59;5041707;28;19940;-73
2022/10/27 10:58:49;;;;;;;;;;;;;;;-144.99;56.46;52126.06;5049464;28;20054;-73
2022/10/27 11:01:17;;;;;;;;;;;;;;;-144.99;56.63;52148.47;5048727;28;19963;-73
2022/10/27 11:03:45;;;;;;;;;;;;;;;-144.99;55.80;52140.31;5042899;28;19944;-73
2022/10/27 11:06:16;;;;;;;;;;;;;;;-144.99;55.31;52154.59;5050104;28;19948;-73
2022/10/27 11:08:43;;;;;;;;;;;;;;;-144.99;55.57;52195.34;5047623;28;19966;-73
2022/10/27 11:11:14;;;;;;;;;;;;;;;-144.99;57.84;52209.63;5049926;28;19935;-71
2022/10/27 11:13:43;;;;;;;;;;;;;;;-144.99;58.54;52203.50;5049158;28;19952;-72
2022/10/27 11:16:11;;;;;;;;;;;;;;;-144.99;60.68;52162.75;5048649;28;19981;-71
2022/10/27 11:18:45;;;;;;;;;;;;;;;-144.99;60.28;52121.97;5049625;28;19955;-74
2022/10/27 11:21:14;;;;;;;;;;;;;;;-144.99;57.26;52130.13;5048519;28;19983;-72
2022/10/27 11:23:43;;;;;;;;;;;;;;;-144.99;56.76;52109.75;5047723;28;19966;-72
2022/10/27 11:26:10;;;;;;;;;;;;;;;-144.99;54.47;52097.53;5050335;28;19943;-72
2022/10/27 11:28:48;;;;;;;;;;;;;;;-144.99;53.06;52077.16;5067411;28;20025;-72
2022/10/27 11:31:20;;;;;;;;;;;;;;;-144.99;52.42;52073.06;5069738;28;19959;-72
2022/10/27 11:33:52;;;;;;;;;;;;;;;-144.99;50.93;52085.31;5052831;28;19986;-71
2022/10/27 11:36:21;;;;;;;;;;;;;;;-144.99;49.80;52064.91;5042071;28;20343;-72
2022/10/27 11:38:54;;;;;;;;;;;;;;;-144.99;48.78;52073.06;5045898;28;19944;-71
2022/10/27 11:41:24;;;;;;;;;;;;;;;-144.99;48.64;52097.53;5034905;28;20050;-72
2022/10/27 11:43:55;;;;;;;;;;;;;;;-144.99;47.97;52073.06;5047749;28;20308;-72
2022/10/27 11:46:24;;;;;;;;;;;;;;;-144.99;47.30;52073.06;5047846;28;20379;-73
2022/10/27 11:48:54;;;;;;;;;;;;;;;-144.99;46.64;52097.53;5047574;28;19969;-72
2022/10/27 11:51:23;;;;;;;;;;;;;;;-144.99;46.90;52087.34;5047947;28;20383;-73
2022/10/27 11:53:50;;;;;;;;;;;;;;;-144.99;47.90;52156.63;5045260;28;19953;-73
2022/10/27 11:56:22;;;;;;;;;;;;;;;-144.99;48.24;52172.94;5047502;28;19941;-72
2022/10/27 11:58:55;;;;;;;;;;;;;;;-144.99;48.64;52172.94;5047523;28;20252;-72
2022/10/27 12:01:29;;;;;;;;;;;;;;;-144.99;49.11;52191.28;5047792;28;20086;-73
2022/10/27 12:04:10;;;;;;;;;;;;;;;-144.99;50.78;52223.88;5047448;28;20079;-73
2022/10/27 12:06:42;;;;;;;;;;;;;;;-144.99;51.77;52211.66;5034948;28;19944;-72
2022/10/27 12:09:13;;;;;;;;;;;;;;;-144.99;52.97;52258.53;5047286;28;19932;-72
2022/10/27 12:11:46;;;;;;;;;;;;;;;-144.99;55.92;52280.97;5047689;28;19935;-72
2022/10/27 12:14:16;;;;;;;;;;;;;;;-144.99;57.74;52289.13;5043069;28;19963;-72
2022/10/27 12:16:46;;;;;;;;;;;;;;;-144.99;59.02;52280.97;5045830;28;19946;-72
2022/10/27 12:19:17;;;;;;;;;;;;;;;-144.99;60.85;52301.34;5048859;28;20298;-72
2022/10/27 12:21:46;;;;;;;;;;;;;;;-144.99;61.99;52295.22;5047473;28;19965;-72
2022/10/27 12:24:17;;;;;;;;;;;;;;;-144.99;63.37;52297.25;5047341;28;20285;-73
2022/10/27 12:26:46;;;;;;;;;;;;;;;-144.99;63.60;52297.25;5047261;28;19962;-72